Time;durP1;ratioP1;P1;durP2;ratioP2;P2;SDS_P1;SDS_P2;PMS_P1;PMS_P2;Temp;Humidity;BMP_temperature;BMP_pressure;BME280_temperature;BME280_humidity;BME280_pressure;Samples;Min_cycle;Max_cycle;Signal;HPM_P1;HPM_P2
2023/12/20 00:00:55;;;;;;;1.33;0.93;;;6.60;99.90;;;;;;4999783;28;20029;-69
2023/12/20 00:03:20;;;;;;;1.30;0.80;;;6.70;99.90;;;;;;4999712;28;20038;-68
2023/12/20 00:05:47;;;;;;;2.22;0.90;;;6.60;99.90;;;;;;5000433;28;20033;-68
2023/12/20 00:08:13;;;;;;;1.75;1.02;;;6.60;99.90;;;;;;5000398;28;20116;-68
2023/12/20 00:10:38;;;;;;;2.13;0.75;;;6.60;99.90;;;;;;5015913;28;20022;-68
2023/12/20 00:13:04;;;;;;;0.80;0.80;;;6.60;99.90;;;;;;5000233;28;20030;-68
2023/12/20 00:15:29;;;;;;;1.13;0.80;;;6.60;99.90;;;;;;5000323;28;20033;-68
2023/12/20 00:17:55;;;;;;;1.17;0.90;;;6.60;99.90;;;;;;5000394;28;20114;-68
2023/12/20 00:20:20;;;;;;;2.35;1.05;;;6.60;99.90;;;;;;5015915;28;20022;-68
2023/12/20 00:22:46;;;;;;;2.40;1.23;;;6.60;99.90;;;;;;5000119;28;20026;-68
2023/12/20 00:25:11;;;;;;;1.25;0.80;;;6.60;99.90;;;;;;5000096;28;20042;-68
2023/12/20 00:27:37;;;;;;;1.60;0.82;;;6.60;99.90;;;;;;4999261;28;20062;-68
2023/12/20 00:30:03;;;;;;;1.40;0.82;;;6.70;99.90;;;;;;5000198;28;20018;-68
2023/12/20 00:32:28;;;;;;;1.63;1.20;;;6.70;99.90;;;;;;5015069;28;20029;-68
2023/12/20 00:34:54;;;;;;;1.50;0.80;;;6.70;99.90;;;;;;5000145;28;20034;-68
2023/12/20 00:37:19;;;;;;;1.30;0.85;;;6.70;99.90;;;;;;5015225;28;20034;-68
2023/12/20 00:39:45;;;;;;;1.40;0.80;;;6.70;99.90;;;;;;4999853;28;20057;-68
2023/12/20 00:42:10;;;;;;;1.00;0.70;;;6.70;99.90;;;;;;4999742;28;20080;-68
2023/12/20 00:44:36;;;;;;;1.60;0.90;;;6.80;99.90;;;;;;4999826;28;20072;-68
2023/12/20 00:47:01;;;;;;;2.40;1.10;;;6.80;99.90;;;;;;5015623;28;20041;-68
2023/12/20 00:49:27;;;;;;;1.65;1.02;;;6.70;99.90;;;;;;4999660;28;20038;-68
2023/12/20 00:51:53;;;;;;;1.25;0.43;;;6.70;99.90;;;;;;4999754;28;20100;-68
2023/12/20 00:54:18;;;;;;;0.95;0.70;;;6.80;99.90;;;;;;4999922;28;20022;-68
2023/12/20 00:56:44;;;;;;;1.48;0.80;;;6.80;99.90;;;;;;4999569;28;20054;-68
2023/12/20 00:59:09;;;;;;;1.05;0.80;;;6.80;99.90;;;;;;5015078;28;20023;-68
2023/12/20 01:01:35;;;;;;;1.13;1.02;;;6.80;99.90;;;;;;4999564;28;20069;-68
2023/12/20 01:04:00;;;;;;;0.63;0.55;;;6.80;99.90;;;;;;4999477;28;20082;-68
2023/12/20 01:06:26;;;;;;;1.58;1.00;;;6.80;99.90;;;;;;5015721;28;20026;-68
2023/12/20 01:08:51;;;;;;;0.95;0.77;;;6.90;99.90;;;;;;5014760;28;20038;-68
2023/12/20 01:11:17;;;;;;;1.83;1.00;;;6.90;99.90;;;;;;5014643;28;20033;-68
2023/12/20 01:13:43;;;;;;;1.20;0.70;;;6.80;99.90;;;;;;5015378;28;20026;-68
2023/12/20 01:16:11;;;;;;;1.02;0.82;;;6.80;99.90;;;;;;4999140;28;20036;-68
2023/12/20 01:18:36;;;;;;;1.02;0.93;;;6.80;99.90;;;;;;4999259;28;20014;-68
2023/12/20 01:21:05;;;;;;;1.15;0.80;;;6.80;99.90;;;;;;4999018;28;20028;-68
2023/12/20 01:23:31;;;;;;;2.22;1.05;;;6.80;99.90;;;;;;4999021;28;20031;-68
2023/12/20 01:25:59;;;;;;;1.23;0.70;;;6.80;99.90;;;;;;5014373;28;20033;-68
2023/12/20 01:28:25;;;;;;;3.15;0.77;;;6.80;99.90;;;;;;5014424;28;20037;-68
2023/12/20 01:30:50;;;;;;;1.02;0.80;;;6.80;99.90;;;;;;4998913;28;20027;-68
2023/12/20 01:33:16;;;;;;;0.93;0.63;;;6.80;99.90;;;;;;4998764;28;20026;-68
2023/12/20 01:35:42;;;;;;;1.67;0.95;;;6.70;99.90;;;;;;4998807;28;20030;-68
2023/12/20 01:38:07;;;;;;;1.00;0.77;;;6.70;99.90;;;;;;5014643;28;20076;-68
2023/12/20 01:40:33;;;;;;;1.60;0.88;;;6.80;99.90;;;;;;5014414;28;20023;-68
2023/12/20 01:43:06;;;;;;;1.65;0.52;;;6.80;99.90;;;;;;4998591;28;20038;-68
2023/12/20 01:45:32;;;;;;;1.20;0.70;;;6.80;99.90;;;;;;4997341;28;20064;-68
2023/12/20 01:47:59;;;;;;;1.40;0.93;;;6.80;99.90;;;;;;5014130;28;20111;-68
2023/12/20 01:50:25;;;;;;;2.03;0.70;;;6.80;99.90;;;;;;4999653;28;20022;-67
2023/12/20 01:52:55;;;;;;;0.80;0.60;;;6.80;99.90;;;;;;5013860;28;20022;-68
2023/12/20 01:55:21;;;;;;;1.48;1.10;;;6.90;99.90;;;;;;5013898;28;20031;-68
2023/12/20 01:57:47;;;;;;;3.80;0.90;;;6.80;99.90;;;;;;5013898;28;20022;-68
2023/12/20 02:00:14;;;;;;;1.73;1.08;;;6.80;99.90;;;;;;4998256;28;20068;-68
2023/12/20 02:02:40;;;;;;;2.00;0.93;;;6.80;99.90;;;;;;4998255;28;20042;-68
2023/12/20 02:05:07;;;;;;;1.58;1.02;;;6.90;99.90;;;;;;5014534;28;20045;-68
2023/12/20 02:07:34;;;;;;;1.95;0.95;;;6.90;99.90;;;;;;4998146;28;20038;-68
2023/12/20 02:09:59;;;;;;;1.20;1.00;;;6.90;99.90;;;;;;5013744;28;20030;-68
2023/12/20 02:12:25;;;;;;;1.15;0.75;;;6.80;99.90;;;;;;5013428;28;20033;-68
2023/12/20 02:14:50;;;;;;;1.73;1.15;;;6.90;99.90;;;;;;4997896;28;20039;-68
2023/12/20 02:17:16;;;;;;;1.83;1.02;;;6.80;99.90;;;;;;5013989;28;20046;-68
2023/12/20 02:19:42;;;;;;;2.78;1.48;;;6.80;99.90;;;;;;4997998;28;20084;-68
2023/12/20 02:22:12;;;;;;;1.85;1.00;;;6.80;99.90;;;;;;5013563;28;20033;-68
2023/12/20 02:24:38;;;;;;;1.00;0.50;;;6.80;99.90;;;;;;4997894;28;20054;-68
2023/12/20 02:27:06;;;;;;;1.33;1.13;;;6.90;99.90;;;;;;5013251;28;20116;-68
2023/12/20 02:29:35;;;;;;;1.85;1.33;;;6.80;99.90;;;;;;4998139;28;20081;-68
2023/12/20 02:32:01;;;;;;;2.10;1.35;;;6.80;99.90;;;;;;4997750;28;20034;-68
2023/12/20 02:34:27;;;;;;;1.63;1.25;;;6.80;99.90;;;;;;5020960;28;20030;-68
2023/12/20 02:36:52;;;;;;;1.98;1.10;;;6.80;99.90;;;;;;5016579;28;20121;-68
2023/12/20 02:39:19;;;;;;;1.15;0.88;;;6.80;99.90;;;;;;5017449;28;20022;-68
2023/12/20 02:41:44;;;;;;;3.17;1.10;;;6.80;99.90;;;;;;5017386;28;20077;-68
2023/12/20 02:44:10;;;;;;;1.63;0.75;;;6.80;99.90;;;;;;5017325;28;20026;-68
2023/12/20 02:46:35;;;;;;;5.65;0.93;;;6.90;99.90;;;;;;5016945;28;20022;-68
2023/12/20 02:49:01;;;;;;;1.40;0.88;;;6.90;99.90;;;;;;5016880;28;20025;-68
2023/12/20 02:51:26;;;;;;;1.30;0.80;;;6.90;99.90;;;;;;5017091;28;20044;-68
2023/12/20 02:53:52;;;;;;;1.40;1.02;;;6.90;99.90;;;;;;5017529;28;20026;-68
2023/12/20 02:56:17;;;;;;;1.85;1.38;;;6.90;99.90;;;;;;5019690;28;20033;-68
2023/12/20 02:58:43;;;;;;;1.20;1.10;;;6.90;99.90;;;;;;5023706;28;20060;-68
2023/12/20 03:03:33;;;;;;;1.77;1.02;;;6.90;99.90;;;;;;5040517;23;20095;-63
2023/12/20 03:06:00;;;;;;;2.63;1.27;;;6.90;99.90;;;;;;5022752;28;20065;-62
2023/12/20 03:08:25;;;;;;;1.83;1.25;;;6.90;99.90;;;;;;5023053;28;20164;-63
2023/12/20 03:10:51;;;;;;;2.13;1.10;;;6.90;99.90;;;;;;5023731;28;20057;-62
2023/12/20 03:13:16;;;;;;;2.20;1.40;;;6.90;99.90;;;;;;5023387;28;20022;-62
2023/12/20 03:15:42;;;;;;;2.83;1.20;;;7.00;99.90;;;;;;5023674;28;20022;-63
2023/12/20 03:18:07;;;;;;;1.77;1.33;;;7.00;99.90;;;;;;5023611;28;20037;-62
2023/12/20 03:20:34;;;;;;;2.00;1.10;;;6.90;99.90;;;;;;5022855;28;20026;-62
2023/12/20 03:23:00;;;;;;;2.17;1.25;;;6.90;99.90;;;;;;5022707;28;20067;-62
2023/12/20 03:25:26;;;;;;;1.52;1.05;;;6.90;99.90;;;;;;5023505;28;20025;-63
2023/12/20 03:27:52;;;;;;;1.58;1.13;;;6.90;99.90;;;;;;5022678;28;20125;-63
2023/12/20 03:30:17;;;;;;;1.98;1.77;;;6.90;99.90;;;;;;5022758;28;20030;-63
2023/12/20 03:32:43;;;;;;;1.55;1.10;;;6.90;99.90;;;;;;5023347;28;20026;-63
2023/12/20 03:35:09;;;;;;;1.45;0.90;;;6.90;99.90;;;;;;5022849;28;20037;-63
2023/12/20 03:37:35;;;;;;;2.42;1.00;;;6.90;99.90;;;;;;5023719;28;20026;-63
2023/12/20 03:40:00;;;;;;;1.80;1.20;;;6.80;99.90;;;;;;5022891;28;20018;-63
2023/12/20 03:42:26;;;;;;;2.33;1.70;;;6.80;99.90;;;;;;5023292;28;20041;-62
2023/12/20 03:44:51;;;;;;;1.52;1.23;;;6.70;99.90;;;;;;5022703;28;20092;-62
2023/12/20 03:47:17;;;;;;;1.55;1.20;;;6.70;99.90;;;;;;5022941;28;20053;-62
2023/12/20 03:49:42;;;;;;;2.63;1.60;;;6.70;99.90;;;;;;5022562;28;20025;-62
2023/12/20 03:52:08;;;;;;;5.20;1.80;;;6.70;99.90;;;;;;5022397;28;20053;-63
2023/12/20 03:54:35;;;;;;;2.53;1.55;;;6.60;99.90;;;;;;5022380;28;20036;-63
2023/12/20 03:57:01;;;;;;;3.53;1.50;;;6.60;99.90;;;;;;5023168;28;20084;-63
2023/12/20 03:59:26;;;;;;;3.33;1.75;;;6.50;99.90;;;;;;5022514;28;20022;-63
2023/12/20 04:01:52;;;;;;;1.75;1.40;;;6.60;99.90;;;;;;5022428;28;20093;-63
2023/12/20 04:04:18;;;;;;;2.70;1.95;;;6.70;99.90;;;;;;5023150;28;20079;-62
2023/12/20 04:06:44;;;;;;;2.15;1.45;;;6.70;99.90;;;;;;5022798;28;20026;-63
2023/12/20 04:09:09;;;;;;;2.38;1.50;;;6.80;99.90;;;;;;5019496;28;20026;-63
2023/12/20 04:11:36;;;;;;;4.85;1.25;;;6.80;99.90;;;;;;5020181;28;20026;-63
2023/12/20 04:14:01;;;;;;;2.03;1.48;;;6.80;99.90;;;;;;5019009;28;20032;-63
2023/12/20 04:16:27;;;;;;;4.78;1.65;;;6.80;99.90;;;;;;5019876;28;20018;-63
2023/12/20 04:18:52;;;;;;;2.60;1.20;;;6.80;99.90;;;;;;5018944;28;20026;-63
2023/12/20 04:21:18;;;;;;;2.15;1.38;;;6.80;99.90;;;;;;5018963;28;20033;-62
2023/12/20 04:23:43;;;;;;;2.53;1.58;;;6.80;99.90;;;;;;5020053;28;20030;-63
2023/12/20 04:26:09;;;;;;;2.83;1.63;;;6.80;99.90;;;;;;5020050;28;20077;-63
2023/12/20 04:28:35;;;;;;;2.22;1.60;;;6.80;99.90;;;;;;5019108;28;20030;-63
2023/12/20 04:31:00;;;;;;;2.40;1.52;;;6.70;99.90;;;;;;5019506;28;20080;-63
2023/12/20 04:33:26;;;;;;;4.38;1.65;;;6.70;99.90;;;;;;5018590;28;20026;-63
2023/12/20 04:35:52;;;;;;;2.65;1.77;;;6.70;99.90;;;;;;5018590;28;20033;-63
2023/12/20 04:38:17;;;;;;;6.22;1.92;;;6.60;99.90;;;;;;5018712;28;20029;-63
2023/12/20 04:40:43;;;;;;;2.75;1.30;;;6.60;99.90;;;;;;5018578;28;20033;-63
2023/12/20 04:43:08;;;;;;;1.27;1.17;;;6.70;99.90;;;;;;5018408;28;20037;-63
2023/12/20 04:45:34;;;;;;;2.35;1.48;;;6.80;99.90;;;;;;5018819;28;20044;-63
2023/12/20 04:48:00;;;;;;;4.65;1.85;;;6.80;99.90;;;;;;5018474;28;20061;-63
2023/12/20 04:50:26;;;;;;;5.00;1.88;;;6.80;99.90;;;;;;5018636;28;20018;-62
2023/12/20 04:52:51;;;;;;;5.72;1.92;;;6.70;99.90;;;;;;5018320;28;20048;-63
2023/12/20 04:55:17;;;;;;;6.50;2.17;;;6.60;99.90;;;;;;5019082;28;20098;-62
2023/12/20 04:57:43;;;;;;;7.55;2.28;;;6.60;99.90;;;;;;5018671;28;20077;-63
2023/12/20 05:00:08;;;;;;;7.85;2.22;;;6.70;99.90;;;;;;5018595;28;20049;-63
2023/12/20 05:02:36;;;;;;;5.68;2.75;;;6.60;99.90;;;;;;5018609;28;20114;-62
2023/12/20 05:05:01;;;;;;;6.10;3.00;;;6.60;99.90;;;;;;5019102;28;20022;-63
2023/12/20 05:07:27;;;;;;;11.65;3.88;;;6.50;99.90;;;;;;5019138;28;20037;-63
2023/12/20 05:09:53;;;;;;;8.45;3.47;;;6.50;99.90;;;;;;5018050;28;20144;-63
2023/12/20 05:12:18;;;;;;;6.25;2.90;;;6.40;99.90;;;;;;5017953;28;20053;-63
2023/12/20 05:14:44;;;;;;;4.18;2.78;;;6.50;99.90;;;;;;5018063;28;20026;-63
2023/12/20 05:17:09;;;;;;;7.45;3.67;;;6.50;99.90;;;;;;5017838;28;20021;-63
2023/12/20 05:19:35;;;;;;;8.13;3.28;;;6.60;99.90;;;;;;5017825;28;20033;-63
2023/12/20 05:22:02;;;;;;;10.95;3.63;;;6.50;99.90;;;;;;5018422;28;20014;-63
2023/12/20 05:24:27;;;;;;;8.32;3.75;;;6.60;99.90;;;;;;5017698;28;20049;-63
2023/12/20 05:26:53;;;;;;;8.93;3.22;;;6.60;99.90;;;;;;5017977;28;20061;-63
2023/12/20 05:29:19;;;;;;;8.80;4.28;;;6.50;99.90;;;;;;5017961;28;20084;-63
2023/12/20 05:31:44;;;;;;;10.25;3.88;;;6.40;99.90;;;;;;5017494;28;20033;-63
2023/12/20 05:34:10;;;;;;;7.97;4.38;;;6.20;99.90;;;;;;5017764;28;20032;-63
2023/12/20 05:36:36;;;;;;;7.45;3.53;;;6.10;99.90;;;;;;5018191;28;20037;-63
2023/12/20 05:39:03;;;;;;;17.52;3.78;;;6.20;99.90;;;;;;5017728;28;20025;-63
2023/12/20 05:41:29;;;;;;;7.25;3.53;;;6.40;99.90;;;;;;5017496;28;20026;-63
2023/12/20 05:43:54;;;;;;;7.00;3.25;;;6.50;99.90;;;;;;5017854;28;20112;-63
2023/12/20 05:46:21;;;;;;;8.98;3.65;;;6.50;99.90;;;;;;5017740;28;20037;-63
2023/12/20 05:48:46;;;;;;;7.35;2.97;;;6.50;99.90;;;;;;5018410;28;20022;-62
2023/12/20 05:51:13;;;;;;;9.18;2.80;;;6.50;99.90;;;;;;5017412;28;20033;-63
2023/12/20 05:53:38;;;;;;;13.30;3.60;;;6.60;99.90;;;;;;5017464;28;20025;-63
2023/12/20 05:56:04;;;;;;;6.47;2.63;;;6.50;99.90;;;;;;5018039;28;20033;-62
2023/12/20 05:58:30;;;;;;;9.13;2.55;;;6.50;99.90;;;;;;5017288;28;20029;-63
2023/12/20 06:00:55;;;;;;;5.07;2.50;;;6.40;99.90;;;;;;5017404;28;20025;-63
2023/12/20 06:03:21;;;;;;;7.22;2.65;;;6.40;99.90;;;;;;5016734;28;20030;-62
2023/12/20 06:05:46;;;;;;;8.68;2.67;;;6.30;99.90;;;;;;5017268;28;20025;-62
2023/12/20 06:08:12;;;;;;;6.68;1.95;;;6.30;99.90;;;;;;5017386;28;20098;-62
2023/12/20 06:10:37;;;;;;;4.90;1.83;;;6.30;99.90;;;;;;5016895;28;20042;-63
2023/12/20 06:13:04;;;;;;;7.65;1.77;;;6.30;99.90;;;;;;5017190;28;20025;-63
2023/12/20 06:15:30;;;;;;;4.75;1.73;;;6.30;99.90;;;;;;5017906;28;20036;-63
2023/12/20 06:17:55;;;;;;;4.03;2.30;;;6.40;99.90;;;;;;5017092;28;20113;-63
2023/12/20 06:20:21;;;;;;;6.15;2.47;;;6.20;99.90;;;;;;5017374;28;20094;-62
2023/12/20 06:22:46;;;;;;;7.15;3.28;;;6.00;99.90;;;;;;5016928;28;20117;-63
2023/12/20 06:25:12;;;;;;;6.18;3.28;;;5.80;99.90;;;;;;5017429;28;20030;-63
2023/12/20 06:27:38;;;;;;;16.73;5.68;;;5.90;99.90;;;;;;5017324;28;20029;-62
2023/12/20 06:30:04;;;;;;;11.88;4.78;;;5.90;99.90;;;;;;5017446;28;20028;-62
2023/12/20 06:32:30;;;;;;;8.45;3.13;;;5.80;99.90;;;;;;5016721;28;20116;-62
2023/12/20 06:34:55;;;;;;;7.32;3.28;;;5.80;99.90;;;;;;5016469;28;20037;-63
2023/12/20 06:37:21;;;;;;;7.65;2.78;;;5.80;99.90;;;;;;5016769;28;20022;-63
2023/12/20 06:39:46;;;;;;;12.30;2.90;;;5.90;99.90;;;;;;5016457;28;20022;-63
2023/12/20 06:42:13;;;;;;;10.73;2.53;;;5.90;99.90;;;;;;5017653;28;20032;-63
2023/12/20 06:44:38;;;;;;;5.60;2.35;;;6.00;99.90;;;;;;5016536;28;20048;-63
2023/12/20 06:47:04;;;;;;;6.55;2.53;;;6.10;99.90;;;;;;5017369;28;20022;-63
2023/12/20 06:49:30;;;;;;;7.32;3.20;;;6.20;99.90;;;;;;5017224;28;20026;-63
2023/12/20 06:51:55;;;;;;;13.32;3.00;;;6.30;99.90;;;;;;5016327;28;20031;-62
2023/12/20 06:54:21;;;;;;;8.10;3.00;;;6.10;99.90;;;;;;5017146;28;20029;-63
2023/12/20 06:56:46;;;;;;;8.38;3.15;;;6.00;99.90;;;;;;5017477;28;20033;-62
2023/12/20 06:59:12;;;;;;;12.75;3.90;;;6.00;99.90;;;;;;5016687;28;20137;-62
2023/12/20 07:01:37;;;;;;;13.77;4.03;;;6.00;99.90;;;;;;5016446;28;20026;-62
2023/12/20 07:04:03;;;;;;;19.38;3.88;;;5.90;99.90;;;;;;5017145;28;20089;-63
2023/12/20 07:06:29;;;;;;;10.48;3.70;;;5.90;99.90;;;;;;5017064;28;20076;-63
2023/12/20 07:08:54;;;;;;;7.82;2.78;;;6.00;99.90;;;;;;5016593;28;20022;-63
2023/12/20 07:11:20;;;;;;;9.25;3.45;;;5.90;99.90;;;;;;5017105;28;20053;-63
2023/12/20 07:13:45;;;;;;;12.35;2.65;;;6.00;99.90;;;;;;5016504;28;20033;-63
2023/12/20 07:16:11;;;;;;;6.47;2.55;;;6.00;99.90;;;;;;5016546;28;20026;-63
2023/12/20 07:18:37;;;;;;;6.55;2.95;;;6.20;99.90;;;;;;5016526;28;20029;-63
2023/12/20 07:21:03;;;;;;;7.07;2.58;;;6.30;99.90;;;;;;5016163;28;20026;-63
2023/12/20 07:23:29;;;;;;;8.43;2.25;;;6.40;99.90;;;;;;5016959;28;20022;-63
2023/12/20 07:25:54;;;;;;;10.70;3.70;;;6.40;99.90;;;;;;5016113;28;20029;-63
2023/12/20 07:28:20;;;;;;;5.00;2.95;;;6.30;99.90;;;;;;5016925;28;20026;-62
2023/12/20 07:30:46;;;;;;;7.38;2.88;;;6.20;99.90;;;;;;5016185;28;20037;-63
2023/12/20 07:33:12;;;;;;;7.35;2.50;;;6.30;99.90;;;;;;5015837;28;20026;-63
2023/12/20 07:35:38;;;;;;;10.38;3.58;;;6.20;99.90;;;;;;5016830;28;20072;-63
2023/12/20 07:38:03;;;;;;;11.40;2.88;;;6.30;99.90;;;;;;5016883;28;20050;-63
2023/12/20 07:40:29;;;;;;;11.80;2.90;;;6.40;99.90;;;;;;5016846;28;20022;-63
2023/12/20 07:42:54;;;;;;;9.80;2.90;;;6.50;99.90;;;;;;5018025;28;20029;-63
2023/12/20 07:45:20;;;;;;;5.53;2.40;;;6.50;99.90;;;;;;5020492;28;20025;-63
2023/12/20 07:47:46;;;;;;;7.30;2.58;;;6.50;99.90;;;;;;5020202;28;20029;-63
2023/12/20 07:50:11;;;;;;;11.90;2.20;;;6.50;99.90;;;;;;5020446;28;20030;-63
2023/12/20 07:52:37;;;;;;;13.68;2.75;;;6.60;99.90;;;;;;5019346;28;20026;-63
2023/12/20 07:55:04;;;;;;;11.05;2.17;;;6.60;99.90;;;;;;5020320;28;20030;-62
2023/12/20 07:57:30;;;;;;;8.20;1.80;;;6.60;99.90;;;;;;5020294;28;20022;-62
2023/12/20 07:59:56;;;;;;;13.20;2.20;;;6.50;99.90;;;;;;5020269;28;20018;-62
2023/12/20 08:02:21;;;;;;;17.38;2.80;;;6.50;99.90;;;;;;5020844;28;20121;-62
2023/12/20 08:04:47;;;;;;;11.18;2.10;;;6.40;99.90;;;;;;5019186;28;20053;-62
2023/12/20 08:07:12;;;;;;;5.82;1.77;;;6.50;99.90;;;;;;5019217;28;20032;-63
2023/12/20 08:09:38;;;;;;;5.45;1.88;;;6.50;99.90;;;;;;5019963;28;20022;-62
2023/12/20 08:12:04;;;;;;;6.55;2.45;;;6.40;99.90;;;;;;5019031;28;20032;-62
2023/12/20 08:14:29;;;;;;;5.00;2.33;;;6.50;99.90;;;;;;5019975;28;20018;-62
2023/12/20 08:16:55;;;;;;;13.20;2.95;;;6.40;99.90;;;;;;5019123;28;20022;-62
2023/12/20 08:19:20;;;;;;;8.85;1.90;;;6.40;99.90;;;;;;5018955;28;20026;-62
2023/12/20 08:21:46;;;;;;;8.63;1.80;;;6.40;99.90;;;;;;5019926;28;20097;-63
2023/12/20 08:24:11;;;;;;;8.90;2.42;;;6.50;99.90;;;;;;5019282;28;20157;-63
2023/12/20 08:26:37;;;;;;;10.57;3.03;;;6.40;99.90;;;;;;5019998;28;20029;-63
2023/12/20 08:29:02;;;;;;;6.78;2.28;;;6.50;99.90;;;;;;5019054;28;20162;-63
2023/12/20 08:31:28;;;;;;;13.40;2.28;;;6.50;99.90;;;;;;5019204;28;20115;-62
2023/12/20 08:33:54;;;;;;;15.27;2.42;;;6.50;99.90;;;;;;5018944;28;20029;-63
2023/12/20 08:36:22;;;;;;;13.75;2.75;;;6.50;99.90;;;;;;5018615;28;20026;-63
2023/12/20 08:38:47;;;;;;;6.53;1.95;;;6.50;99.90;;;;;;5018610;28;20026;-62
2023/12/20 08:41:13;;;;;;;13.25;2.67;;;6.50;99.90;;;;;;5019448;28;20093;-63
2023/12/20 08:43:41;;;;;;;5.97;2.03;;;6.50;99.90;;;;;;5018516;28;20034;-63
2023/12/20 08:46:09;;;;;;;8.63;1.70;;;6.50;99.90;;;;;;5018510;28;20026;-62
2023/12/20 08:48:35;;;;;;;9.07;2.42;;;6.40;99.90;;;;;;5019333;28;20057;-63
2023/12/20 08:51:00;;;;;;;4.97;1.90;;;6.40;99.90;;;;;;5018890;28;20026;-63
2023/12/20 08:53:26;;;;;;;10.10;2.30;;;6.40;99.90;;;;;;5018009;28;20028;-63
2023/12/20 08:55:52;;;;;;;14.55;2.08;;;6.40;99.90;;;;;;5018196;28;20018;-62
2023/12/20 08:58:17;;;;;;;10.80;1.65;;;6.40;99.90;;;;;;5019114;28;20033;-62
2023/12/20 09:00:43;;;;;;;11.15;2.80;;;6.40;99.90;;;;;;5018506;28;20063;-62
2023/12/20 09:03:09;;;;;;;4.80;1.75;;;6.40;99.90;;;;;;5019004;28;20034;-70
2023/12/20 09:05:35;;;;;;;9.75;2.88;;;6.40;99.90;;;;;;5018766;28;20121;-70
2023/12/20 09:08:00;;;;;;;6.25;1.90;;;6.40;99.90;;;;;;5019290;28;20049;-70
2023/12/20 09:10:26;;;;;;;6.13;2.45;;;6.40;99.90;;;;;;5017905;28;20033;-70
2023/12/20 09:12:56;;;;;;;11.48;1.90;;;6.30;99.90;;;;;;5017989;28;20025;-70
2023/12/20 09:15:23;;;;;;;14.60;2.60;;;6.20;99.90;;;;;;5017925;28;20022;-70
2023/12/20 09:17:48;;;;;;;12.00;2.20;;;6.20;99.90;;;;;;5018741;28;20048;-70
2023/12/20 09:20:14;;;;;;;8.88;2.20;;;6.20;99.90;;;;;;5018628;28;20025;-70
2023/12/20 09:22:41;;;;;;;3.63;1.52;;;6.20;99.90;;;;;;5018617;28;20017;-69
2023/12/20 09:25:07;;;;;;;7.03;2.03;;;6.30;99.90;;;;;;5018854;28;20105;-70
2023/12/20 09:27:33;;;;;;;8.77;2.10;;;6.40;99.90;;;;;;5018832;28;20084;-70
2023/12/20 09:29:59;;;;;;;7.90;2.38;;;6.30;99.90;;;;;;5017718;28;20042;-70
2023/12/20 09:32:24;;;;;;;8.05;1.92;;;6.30;99.90;;;;;;5017525;28;20076;-69
2023/12/20 09:34:50;;;;;;;12.93;1.88;;;6.30;99.90;;;;;;5018523;28;20061;-70
2023/12/20 09:37:15;;;;;;;18.20;2.35;;;6.30;99.90;;;;;;5018757;28;20026;-70
2023/12/20 09:39:41;;;;;;;8.10;1.80;;;6.30;99.90;;;;;;5017905;28;20022;-69
2023/12/20 09:42:07;;;;;;;5.55;1.58;;;6.30;99.90;;;;;;5017334;28;20029;-70
2023/12/20 09:44:36;;;;;;;7.90;2.13;;;6.30;99.90;;;;;;5018398;28;20021;-63
2023/12/20 09:47:03;;;;;;;15.38;2.28;;;6.30;99.90;;;;;;5018177;28;20095;-62
2023/12/20 09:49:30;;;;;;;7.70;1.95;;;6.40;99.90;;;;;;5018448;28;20030;-63
2023/12/20 09:51:56;;;;;;;7.38;2.00;;;6.40;99.90;;;;;;5017951;28;20025;-63
2023/12/20 09:54:23;;;;;;;6.18;1.80;;;6.50;99.90;;;;;;5017875;28;20028;-62
2023/12/20 09:56:50;;;;;;;13.38;2.72;;;6.50;99.90;;;;;;5018068;28;20021;-62
2023/12/20 09:59:15;;;;;;;10.98;1.83;;;6.50;99.90;;;;;;5017641;28;20121;-62
2023/12/20 10:01:42;;;;;;;3.50;1.67;;;6.50;99.90;;;;;;5018286;28;20054;-63
2023/12/20 10:04:12;;;;;;;9.90;2.13;;;6.50;99.90;;;;;;5017546;28;20060;-62
2023/12/20 10:06:41;;;;;;;7.95;1.60;;;6.50;99.90;;;;;;5016445;28;20052;-62
2023/12/20 10:09:07;;;;;;;8.30;1.77;;;6.50;99.90;;;;;;5017146;28;20060;-63
2023/12/20 10:11:32;;;;;;;8.63;1.85;;;6.40;99.90;;;;;;5017821;28;20018;-63
2023/12/20 10:14:01;;;;;;;13.73;1.83;;;6.40;99.90;;;;;;5017999;28;20065;-63
2023/12/20 10:16:27;;;;;;;7.43;2.13;;;6.40;99.90;;;;;;5017707;28;20100;-62
2023/12/20 10:18:54;;;;;;;17.90;2.78;;;6.50;99.90;;;;;;5016837;28;20030;-63
2023/12/20 10:21:20;;;;;;;9.50;2.80;;;6.50;99.90;;;;;;5017403;28;20026;-62
2023/12/20 10:23:45;;;;;;;9.55;2.80;;;6.60;99.90;;;;;;5017784;28;20053;-63
2023/12/20 10:26:22;;;;;;;4.55;1.88;;;6.60;99.90;;;;;;5016689;28;20057;-62
2023/12/20 10:28:54;;;;;;;9.70;1.48;;;6.60;99.90;;;;;;5017973;28;20108;-63
2023/12/20 10:31:32;;;;;;;8.75;1.75;;;6.60;99.90;;;;;;5017728;28;20026;-62
2023/12/20 10:33:59;;;;;;;3.45;1.70;;;6.70;99.90;;;;;;5017594;28;20033;-63
2023/12/20 10:36:31;;;;;;;6.80;1.77;;;6.50;99.90;;;;;;5016603;28;20026;-62
2023/12/20 10:38:59;;;;;;;;;;;6.50;99.90;;;;;;5017854;28;20026;-62
2023/12/20 10:41:30;;;;;;;6.28;1.55;;;6.50;99.90;;;;;;5017277;28;20039;-62
2023/12/20 10:44:01;;;;;;;16.50;2.08;;;6.50;99.90;;;;;;5017376;28;20022;-62
2023/12/20 10:46:28;;;;;;;7.68;2.08;;;6.50;99.90;;;;;;5017616;28;20053;-62
2023/12/20 10:48:55;;;;;;;13.30;1.92;;;6.50;99.90;;;;;;5016431;28;20042;-62
2023/12/20 10:51:21;;;;;;;7.82;1.88;;;6.50;99.90;;;;;;5016290;28;20089;-61
2023/12/20 10:53:50;;;;;;;11.00;2.10;;;6.50;99.90;;;;;;5016230;28;20030;-62
2023/12/20 10:56:18;;;;;;;7.65;2.15;;;6.60;99.90;;;;;;5016325;28;20029;-62
2023/12/20 10:58:44;;;;;;;4.95;1.70;;;6.60;99.90;;;;;;5017679;28;20022;-62
2023/12/20 11:01:14;;;;;;;13.52;2.00;;;6.70;99.90;;;;;;5016786;28;20026;-62
2023/12/20 11:03:45;;;;;;;13.38;2.88;;;6.80;99.90;;;;;;5017476;28;20038;-62
2023/12/20 11:06:18;;;;;;;6.63;1.77;;;6.80;99.90;;;;;;5017294;28;20029;-61
2023/12/20 11:09:10;;;;;;;4.88;1.83;;;6.80;99.90;;;;;;5017013;28;20037;-62
2023/12/20 11:11:44;;;;;;;;;;;6.70;99.90;;;;;;5017421;28;20042;-62
2023/12/20 11:14:22;;;;;;;9.77;3.30;;;6.60;99.90;;;;;;5017392;28;19925;-63
2023/12/20 11:16:48;;;;;;;8.48;2.50;;;6.70;99.90;;;;;;5018055;28;20022;-62
2023/12/20 11:19:13;;;;;;;12.75;2.50;;;6.70;99.90;;;;;;5020182;28;20025;-62
2023/12/20 11:21:40;;;;;;;7.28;2.90;;;6.70;99.90;;;;;;5020086;28;20018;-62
2023/12/20 11:24:06;;;;;;;7.75;1.77;;;6.70;99.90;;;;;;5021432;28;20025;-63
2023/12/20 11:26:31;;;;;;;4.43;1.33;;;6.70;99.90;;;;;;5021165;28;20025;-63
2023/12/20 11:29:35;;;;;;;6.43;1.80;;;6.70;99.90;;;;;;5019886;28;20022;-63
2023/12/20 11:32:24;;;;;;;6.65;1.55;;;6.70;99.90;;;;;;5020709;28;20080;-62
2023/12/20 11:34:51;;;;;;;8.68;2.50;;;6.80;99.90;;;;;;5019522;28;20053;-62
2023/12/20 11:37:20;;;;;;;5.82;2.40;;;6.70;99.90;;;;;;5020848;28;20056;-62
2023/12/20 11:39:45;;;;;;;6.03;2.40;;;6.70;99.90;;;;;;5020976;28;20040;-62
2023/12/20 11:42:11;;;;;;;9.52;2.60;;;6.80;99.90;;;;;;5019569;28;20120;-63
2023/12/20 11:44:37;;;;;;;11.77;2.47;;;6.80;99.90;;;;;;5020975;28;20053;-63
2023/12/20 11:47:03;;;;;;;11.23;2.17;;;6.80;99.90;;;;;;5019939;28;20076;-62
2023/12/20 11:49:30;;;;;;;6.75;3.05;;;6.80;99.90;;;;;;5020362;28;20037;-63
2023/12/20 11:51:56;;;;;;;7.78;1.92;;;6.80;99.90;;;;;;5020394;28;20022;-61
2023/12/20 11:54:22;;;;;;;10.98;2.95;;;6.80;99.90;;;;;;5020229;28;20030;-62
2023/12/20 11:56:48;;;;;;;9.68;2.53;;;6.80;99.90;;;;;;5019435;28;20033;-62
2023/12/20 11:59:14;;;;;;;11.18;2.75;;;6.80;99.90;;;;;;5019755;28;20022;-62
2023/12/20 12:01:39;;;;;;;16.73;3.47;;;6.80;99.90;;;;;;5019414;28;20034;-62
2023/12/20 12:04:07;;;;;;;7.65;1.67;;;6.70;99.90;;;;;;5019734;28;20034;-62
2023/12/20 12:06:33;;;;;;;9.95;2.90;;;6.70;99.90;;;;;;5019352;28;20026;-62
2023/12/20 12:08:59;;;;;;;11.48;2.63;;;6.70;99.90;;;;;;5020100;28;20018;-62
2023/12/20 12:11:24;;;;;;;10.77;3.03;;;6.70;99.90;;;;;;5020060;28;20029;-62
2023/12/20 12:13:50;;;;;;;5.22;2.33;;;6.70;99.90;;;;;;5019842;28;20021;-62
2023/12/20 12:16:22;;;;;;;12.65;2.33;;;6.80;99.90;;;;;;5019388;28;20029;-62
2023/12/20 12:18:57;;;;;;;;;;;6.80;99.90;;;;;;5020572;28;20018;-62
2023/12/20 12:21:23;;;;;;;6.55;2.50;;;6.80;99.90;;;;;;5019289;28;19914;-62
2023/12/20 12:23:49;;;;;;;12.55;3.53;;;6.80;99.90;;;;;;5019900;28;20026;-63
2023/12/20 12:26:14;;;;;;;14.70;2.22;;;6.90;99.90;;;;;;5018830;28;20082;-62
2023/12/20 12:28:41;;;;;;;15.20;3.38;;;6.80;99.90;;;;;;5018756;28;20026;-62
2023/12/20 12:31:07;;;;;;;12.02;3.17;;;6.80;99.90;;;;;;5018736;28;20029;-62
2023/12/20 12:33:33;;;;;;;8.38;2.40;;;6.80;99.90;;;;;;5018315;28;20030;-62
2023/12/20 12:35:59;;;;;;;11.15;2.85;;;6.90;99.90;;;;;;5019510;28;20018;-62
2023/12/20 12:38:25;;;;;;;5.25;2.05;;;7.00;99.90;;;;;;5019628;28;20084;-62
2023/12/20 12:40:53;;;;;;;8.73;2.00;;;7.00;99.90;;;;;;5019583;28;20022;-62
2023/12/20 12:43:18;;;;;;;4.13;1.88;;;7.00;99.90;;;;;;5019463;28;20024;-63
2023/12/20 12:46:09;;;;;;;8.10;2.15;;;7.00;99.90;;;;;;5019383;28;20030;-62
2023/12/20 12:48:34;;;;;;;6.05;1.98;;;7.00;99.90;;;;;;5019647;28;20022;-63
2023/12/20 12:51:00;;;;;;;6.53;1.92;;;7.00;99.90;;;;;;5019672;28;20033;-63
2023/12/20 12:53:27;;;;;;;8.55;1.67;;;7.00;99.90;;;;;;5019125;28;20034;-63